Terminal Aerodrome Forecast
Issued by NWS Nashville, TN

Home | Current Version | Previous Version | Text Only | Print | Product List | Glossary On
Versions: 1 2 3 4 5 6 7 8 9 10 11 12 13 14 15 16 17 18 19 20 21 22 23
000
FTUS44 KOHX 241228 AAA
TAFBNA
TAF AMD
KBNA 241228Z 2412/2512 18012G20KT P6SM BKN028
     FM241500 18014G24KT P6SM BKN025 BKN035
     FM242100 18015G25KT P6SM BKN045
     FM250100 17012KT P6SM BKN070=

USA.gov is the U.S. government's official web portal to all federal, state and local government web resources and services.